Time;durP1;ratioP1;P1;durP2;ratioP2;P2;SDS_P1;SDS_P2;PMS_P1;PMS_P2;Temp;Humidity;BMP_temperature;BMP_pressure;BME280_temperature;BME280_humidity;BME280_pressure;Samples;Min_cycle;Max_cycle;Signal;HPM_P1;HPM_P2
2023/04/29 00:03:46;;;;;;;25.50;12.17;;;;;;;;;;10403044;28;20048;-81
2023/04/29 00:08:47;;;;;;;21.13;11.27;;;;;;;;;;10403947;28;20034;-81
2023/04/29 00:13:48;;;;;;;24.73;14.27;;;;;;;;;;10403353;28;20018;-82
2023/04/29 00:18:51;;;;;;;23.33;13.10;;;;;;;;;;10401888;28;20034;-81
2023/04/29 00:23:52;;;;;;;25.03;13.27;;;;;;;;;;10402407;28;20045;-82
2023/04/29 00:28:53;;;;;;;27.77;14.73;;;;;;;;;;10399751;28;20493;-81
2023/04/29 00:33:53;;;;;;;23.27;13.53;;;;;;;;;;10402796;28;20040;-81
2023/04/29 00:38:54;;;;;;;27.77;14.50;;;;;;;;;;10402644;28;20286;-81
2023/04/29 00:43:55;;;;;;;23.40;13.50;;;;;;;;;;10402758;28;20080;-82
2023/04/29 00:48:57;;;;;;;23.83;14.10;;;;;;;;;;10402357;28;20037;-81
2023/04/29 00:53:58;;;;;;;23.70;13.27;;;;;;;;;;10402787;28;20033;-82
2023/04/29 00:59:02;;;;;;;26.07;14.10;;;;;;;;;;10401988;28;20040;-81
2023/04/29 01:04:05;;;;;;;28.03;14.50;;;;;;;;;;10401848;28;20048;-82
2023/04/29 01:09:24;;;;;;;28.83;15.80;;;;;;;;;;10400135;28;20385;-81
2023/04/29 01:14:29;;;;;;;25.13;15.30;;;;;;;;;;10402657;28;20044;-81
2023/04/29 01:19:42;;;;;;;23.53;13.87;;;;;;;;;;10400605;28;21532;-81
2023/04/29 01:24:43;;;;;;;22.93;13.03;;;;;;;;;;10399388;28;20041;-82
2023/04/29 01:30:00;;;;;;;23.57;13.77;;;;;;;;;;10401784;28;20029;-81
2023/04/29 01:35:09;;;;;;;28.43;15.00;;;;;;;;;;10401695;28;20033;-82
2023/04/29 01:40:12;;;;;;;24.23;14.80;;;;;;;;;;10401520;28;20051;-81
2023/04/29 01:45:17;;;;;;;27.73;14.83;;;;;;;;;;10408345;28;20042;-82
2023/04/29 01:50:22;;;;;;;28.83;16.10;;;;;;;;;;10403438;28;20534;-83
2023/04/29 01:55:23;;;;;;;28.37;14.97;;;;;;;;;;10407943;28;20025;-82
2023/04/29 02:00:24;;;;;;;27.60;14.53;;;;;;;;;;10408296;28;20033;-81
2023/04/29 02:05:25;;;;;;;22.63;13.30;;;;;;;;;;10408521;28;20136;-81
2023/04/29 02:10:26;;;;;;;25.57;13.20;;;;;;;;;;10407646;28;20099;-81
2023/04/29 02:15:28;;;;;;;24.80;12.80;;;;;;;;;;10406975;28;20025;-82
2023/04/29 02:20:29;;;;;;;18.50;11.10;;;;;;;;;;10407849;28;20025;-80
2023/04/29 02:25:30;;;;;;;19.70;12.20;;;;;;;;;;10407587;28;20111;-81
2023/04/29 02:30:33;;;;;;;20.97;12.57;;;;;;;;;;10407150;28;20037;-82
2023/04/29 02:35:34;;;;;;;18.70;11.83;;;;;;;;;;10407196;28;20525;-81
2023/04/29 02:40:43;;;;;;;23.10;12.60;;;;;;;;;;10407569;28;20595;-82
2023/04/29 02:45:44;;;;;;;19.30;12.10;;;;;;;;;;10405877;28;20045;-81
2023/04/29 02:50:45;;;;;;;26.90;12.90;;;;;;;;;;10406685;28;20033;-81
2023/04/29 02:55:47;;;;;;;21.90;12.40;;;;;;;;;;10405927;28;20037;-81
2023/04/29 03:00:48;;;;;;;24.00;13.37;;;;;;;;;;10405681;28;20120;-81
2023/04/29 03:05:49;;;;;;;26.47;12.20;;;;;;;;;;10404592;28;20041;-81
2023/04/29 03:10:50;;;;;;;24.40;13.20;;;;;;;;;;10405238;28;20032;-81
2023/04/29 03:15:51;;;;;;;25.77;13.63;;;;;;;;;;10405070;28;20033;-82
2023/04/29 03:20:56;;;;;;;22.80;12.90;;;;;;;;;;10404345;28;20041;-81
2023/04/29 03:25:57;;;;;;;26.73;13.63;;;;;;;;;;10396847;28;20053;-83
2023/04/29 03:31:00;;;;;;;23.40;13.50;;;;;;;;;;10399536;28;20048;-81
2023/04/29 03:36:04;;;;;;;27.50;15.83;;;;;;;;;;10404838;28;20034;-80
2023/04/29 03:41:05;;;;;;;24.40;14.30;;;;;;;;;;10405249;28;20140;-81
2023/04/29 03:46:06;;;;;;;22.63;13.87;;;;;;;;;;10403396;28;20584;-82
2023/04/29 03:51:08;;;;;;;24.57;13.43;;;;;;;;;;10402039;28;20034;-81
2023/04/29 03:56:10;;;;;;;27.67;14.73;;;;;;;;;;10403645;28;20021;-80
2023/04/29 04:01:12;;;;;;;19.23;12.73;;;;;;;;;;10403484;28;20037;-81
2023/04/29 04:06:12;;;;;;;24.97;15.00;;;;;;;;;;10402553;28;20036;-81
2023/04/29 04:11:14;;;;;;;20.90;13.27;;;;;;;;;;10402633;28;20029;-80
2023/04/29 04:16:15;;;;;;;25.57;14.23;;;;;;;;;;10402189;28;20037;-82
2023/04/29 04:21:16;;;;;;;25.90;15.40;;;;;;;;;;10402166;28;20094;-81
2023/04/29 04:26:17;;;;;;;26.43;16.57;;;;;;;;;;10403566;28;20437;-79
2023/04/29 04:31:18;;;;;;;23.23;14.30;;;;;;;;;;10401301;28;20091;-82
2023/04/29 04:36:19;;;;;;;23.10;14.40;;;;;;;;;;10410115;28;20033;-81
2023/04/29 04:41:20;;;;;;;26.80;16.13;;;;;;;;;;10402183;28;20779;-82
2023/04/29 04:46:21;;;;;;;31.30;15.50;;;;;;;;;;10401437;28;20037;-80
2023/04/29 04:51:22;;;;;;;25.57;14.80;;;;;;;;;;10401326;28;20099;-81
2023/04/29 04:56:23;;;;;;;25.90;15.37;;;;;;;;;;10404557;28;20497;-80
2023/04/29 05:01:24;;;;;;;27.73;16.23;;;;;;;;;;10399836;28;20029;-79
2023/04/29 05:06:25;;;;;;;25.83;15.40;;;;;;;;;;10401474;28;20060;-79
2023/04/29 05:11:27;;;;;;;33.17;19.03;;;;;;;;;;10402480;28;20113;-78
2023/04/29 05:16:28;;;;;;;54.30;25.47;;;;;;;;;;10403167;28;20026;-79
2023/04/29 05:21:30;;;;;;;54.57;26.97;;;;;;;;;;10409406;28;20033;-80
2023/04/29 05:26:31;;;;;;;34.60;19.90;;;;;;;;;;10408863;28;20054;-80
2023/04/29 05:31:32;;;;;;;33.47;19.40;;;;;;;;;;10409294;28;20036;-79
2023/04/29 05:36:33;;;;;;;33.93;20.37;;;;;;;;;;10408829;28;20053;-82
2023/04/29 05:41:34;;;;;;;37.25;20.42;;;;;;;;;;10407455;28;20136;-80
2023/04/29 05:46:36;;;;;;;38.00;21.67;;;;;;;;;;10408573;28;20036;-81
2023/04/29 05:51:39;;;;;;;32.60;19.13;;;;;;;;;;10408653;28;20065;-80
2023/04/29 05:56:41;;;;;;;34.07;20.17;;;;;;;;;;10406767;28;20048;-80
2023/04/29 06:01:42;;;;;;;33.80;21.90;;;;;;;;;;10403740;28;20048;-80
2023/04/29 06:06:48;;;;;;;37.67;22.50;;;;;;;;;;10407526;28;20041;-81
2023/04/29 06:11:49;;;;;;;37.63;23.40;;;;;;;;;;10407512;28;20033;-80
2023/04/29 06:16:50;;;;;;;43.30;25.30;;;;;;;;;;10407534;28;20033;-81
2023/04/29 06:21:55;;;;;;;47.50;27.53;;;;;;;;;;10407441;28;20034;-82
2023/04/29 06:26:56;;;;;;;48.97;29.70;;;;;;;;;;10406663;28;20037;-79
2023/04/29 06:31:56;;;;;;;48.83;30.47;;;;;;;;;;10406378;28;20735;-81
2023/04/29 06:37:00;;;;;;;57.10;33.37;;;;;;;;;;10406684;28;20037;-80
2023/04/29 06:42:02;;;;;;;51.93;31.87;;;;;;;;;;10405570;28;20484;-80
2023/04/29 06:47:03;;;;;;;50.00;32.70;;;;;;;;;;10406275;28;20068;-79
2023/04/29 06:52:06;;;;;;;43.67;26.93;;;;;;;;;;10406482;28;20120;-80
2023/04/29 06:57:09;;;;;;;39.72;25.95;;;;;;;;;;10405563;28;20038;-82
2023/04/29 07:02:11;;;;;;;38.00;26.13;;;;;;;;;;10405182;28;20052;-81
2023/04/29 07:07:12;;;;;;;39.58;26.13;;;;;;;;;;10404899;28;20049;-82
2023/04/29 07:12:12;;;;;;;49.60;31.23;;;;;;;;;;10404644;28;20021;-80
2023/04/29 07:17:13;;;;;;;44.53;31.08;;;;;;;;;;10405550;28;20063;-81
2023/04/29 07:22:18;;;;;;;45.35;30.30;;;;;;;;;;10405001;28;20044;-81
2023/04/29 07:27:19;;;;;;;51.78;33.95;;;;;;;;;;10403947;28;20053;-82
2023/04/29 07:32:22;;;;;;;54.42;34.47;;;;;;;;;;10404114;28;20567;-80
2023/04/29 07:37:23;;;;;;;55.83;33.60;;;;;;;;;;10404738;28;20028;-82
2023/04/29 07:42:27;;;;;;;50.50;30.40;;;;;;;;;;10407554;28;20037;-80
2023/04/29 07:47:28;;;;;;;54.03;34.80;;;;;;;;;;10430349;28;20041;-80
2023/04/29 07:52:38;;;;;;;57.78;35.00;;;;;;;;;;10441690;28;20021;-80
2023/04/29 07:57:39;;;;;;;47.47;28.98;;;;;;;;;;10400192;28;20570;-79
2023/04/29 08:02:41;;;;;;;32.95;20.58;;;;;;;;;;10398540;28;20026;-79
2023/04/29 08:07:42;;;;;;;25.48;16.10;;;;;;;;;;10417876;28;20064;-78
2023/04/29 08:12:46;;;;;;;21.08;13.95;;;;;;;;;;10422264;28;20030;-78
2023/04/29 08:17:47;;;;;;;23.73;15.80;;;;;;;;;;10414548;28;20079;-78
2023/04/29 08:22:50;;;;;;;25.00;14.90;;;;;;;;;;10404719;28;20025;-78
2023/04/29 08:27:51;;;;;;;26.13;15.85;;;;;;;;;;10411085;28;20871;-77
2023/04/29 08:32:57;;;;;;;27.63;15.82;;;;;;;;;;10440129;28;20033;-77
2023/04/29 08:37:58;;;;;;;22.48;14.55;;;;;;;;;;10427593;28;20036;-78
2023/04/29 08:42:59;;;;;;;28.20;16.13;;;;;;;;;;10408695;28;20062;-78
2023/04/29 08:48:00;;;;;;;22.60;14.75;;;;;;;;;;10413392;28;20118;-78
2023/04/29 08:53:01;;;;;;;19.98;12.68;;;;;;;;;;10438630;28;20512;-78
2023/04/29 08:58:03;;;;;;;19.58;11.63;;;;;;;;;;10401925;28;20091;-77
2023/04/29 09:03:11;;;;;;;21.38;12.60;;;;;;;;;;10399270;28;20102;-78
2023/04/29 09:08:12;;;;;;;18.83;12.10;;;;;;;;;;10402730;28;20087;-79
2023/04/29 09:13:23;;;;;;;16.45;11.32;;;;;;;;;;10398735;28;20052;-78
2023/04/29 09:18:42;;;;;;;16.88;11.27;;;;;;;;;;10395234;28;20026;-78
2023/04/29 09:23:44;;;;;;;19.65;13.35;;;;;;;;;;10390670;28;20079;-79
2023/04/29 09:28:46;;;;;;;20.10;11.38;;;;;;;;;;10398266;28;20053;-78
2023/04/29 09:33:53;;;;;;;30.58;18.35;;;;;;;;;;10397272;28;20033;-80
2023/04/29 09:38:54;;;;;;;16.70;10.82;;;;;;;;;;10398827;28;20040;-79
2023/04/29 09:44:05;;;;;;;20.80;13.88;;;;;;;;;;10397008;28;20073;-80
2023/04/29 09:49:24;;;;;;;17.65;14.30;;;;;;;;;;10394628;28;20040;-78
2023/04/29 09:54:31;;;;;;;21.23;12.88;;;;;;;;;;10393477;28;20030;-80
2023/04/29 09:59:37;;;;;;;20.13;12.00;;;;;;;;;;10407254;28;20028;-78
2023/04/29 10:04:40;;;;;;;23.08;12.27;;;;;;;;;;10396760;28;20029;-79
2023/04/29 10:09:41;;;;;;;16.10;10.57;;;;;;;;;;10408450;28;20038;-79
2023/04/29 10:14:45;;;;;;;19.15;11.55;;;;;;;;;;10406787;28;20069;-79
2023/04/29 10:20:01;;;;;;;19.80;10.00;;;;;;;;;;10407469;28;20570;-78
2023/04/29 10:25:04;;;;;;;13.35;9.65;;;;;;;;;;10404158;28;20093;-80
2023/04/29 10:30:07;;;;;;;30.00;14.30;;;;;;;;;;10404697;28;20049;-79
2023/04/29 10:35:09;;;;;;;19.20;11.60;;;;;;;;;;10406214;28;20029;-77
2023/04/29 10:40:17;;;;;;;28.00;14.93;;;;;;;;;;10405646;28;20423;-79
2023/04/29 10:45:23;;;;;;;20.15;12.18;;;;;;;;;;10406133;28;20622;-77
2023/04/29 10:50:24;;;;;;;27.70;16.17;;;;;;;;;;10405515;28;20029;-79
2023/04/29 10:55:26;;;;;;;14.95;10.68;;;;;;;;;;10403393;28;20432;-80
2023/04/29 11:00:30;;;;;;;18.15;11.43;;;;;;;;;;10402250;28;20564;-80
2023/04/29 11:05:34;;;;;;;16.83;10.85;;;;;;;;;;10404032;28;20052;-79
2023/04/29 11:10:42;;;;;;;18.00;9.88;;;;;;;;;;10403242;28;20029;-80
2023/04/29 11:15:46;;;;;;;14.70;9.88;;;;;;;;;;10404654;28;20033;-80
2023/04/29 11:21:13;;;;;;;16.92;11.25;;;;;;;;;;10406426;28;20087;-80
2023/04/29 11:26:20;;;;;;;19.88;12.07;;;;;;;;;;10393255;28;20049;-81
2023/04/29 11:31:21;;;;;;;22.80;12.55;;;;;;;;;;10403004;28;20076;-79
2023/04/29 11:36:27;;;;;;;18.10;12.18;;;;;;;;;;10401669;28;20030;-79
2023/04/29 11:41:28;;;;;;;15.90;12.02;;;;;;;;;;10394179;28;20556;-81
2023/04/29 11:46:32;;;;;;;19.65;12.50;;;;;;;;;;10393898;28;20759;-79
2023/04/29 11:51:37;;;;;;;25.02;14.45;;;;;;;;;;10402429;28;20490;-81
2023/04/29 11:56:39;;;;;;;22.98;14.05;;;;;;;;;;10401178;28;20026;-79
2023/04/29 12:01:41;;;;;;;25.30;13.82;;;;;;;;;;10400957;28;20483;-79
2023/04/29 12:06:47;;;;;;;17.88;11.18;;;;;;;;;;10400802;28;20069;-80
2023/04/29 12:11:49;;;;;;;17.02;11.48;;;;;;;;;;10402463;28;20041;-81
2023/04/29 12:16:53;;;;;;;14.57;9.43;;;;;;;;;;10401100;28;20396;-80
2023/04/29 12:21:58;;;;;;;15.95;10.20;;;;;;;;;;10400857;28;20415;-80
2023/04/29 12:27:00;;;;;;;21.30;12.97;;;;;;;;;;10406259;28;20057;-79
2023/04/29 12:32:05;;;;;;;20.25;12.15;;;;;;;;;;10399390;28;20099;-79
2023/04/29 12:37:07;;;;;;;29.27;16.45;;;;;;;;;;10400363;28;20033;-79
2023/04/29 12:42:15;;;;;;;22.73;14.35;;;;;;;;;;10401619;28;20025;-79
2023/04/29 12:47:16;;;;;;;22.92;12.05;;;;;;;;;;10402576;28;20029;-80
2023/04/29 12:52:17;;;;;;;21.77;10.95;;;;;;;;;;10400558;28;20030;-78
2023/04/29 12:57:18;;;;;;;20.10;10.80;;;;;;;;;;10400398;28;20041;-79
2023/04/29 13:02:19;;;;;;;16.15;10.88;;;;;;;;;;10403007;28;20037;-80
2023/04/29 13:07:20;;;;;;;22.17;12.88;;;;;;;;;;10404049;28;20042;-79
2023/04/29 13:12:21;;;;;;;10.98;6.25;;;;;;;;;;10405753;28;20108;-79
2023/04/29 13:17:31;;;;;;;28.25;14.77;;;;;;;;;;10410832;28;20449;-80
2023/04/29 13:22:32;;;;;;;21.33;13.75;;;;;;;;;;10409357;28;20033;-80
2023/04/29 13:27:36;;;;;;;17.15;9.88;;;;;;;;;;10416189;28;20492;-79
2023/04/29 13:32:40;;;;;;;18.30;12.07;;;;;;;;;;10417360;28;20037;-80
2023/04/29 13:37:48;;;;;;;15.10;9.00;;;;;;;;;;10406398;28;20115;-81
2023/04/29 13:42:49;;;;;;;16.77;10.13;;;;;;;;;;10407501;28;20299;-79
2023/04/29 13:47:52;;;;;;;18.02;11.27;;;;;;;;;;10404994;28;20036;-81
2023/04/29 13:52:53;;;;;;;16.63;9.18;;;;;;;;;;10405673;28;20029;-80
2023/04/29 13:57:54;;;;;;;12.77;8.95;;;;;;;;;;10407987;28;20037;-81
2023/04/29 14:02:55;;;;;;;15.45;10.10;;;;;;;;;;10406528;28;20096;-81
2023/04/29 14:07:56;;;;;;;16.23;10.40;;;;;;;;;;10407707;28;20052;-80
2023/04/29 14:12:57;;;;;;;18.92;11.02;;;;;;;;;;10404177;28;20026;-78
2023/04/29 14:18:02;;;;;;;19.02;11.18;;;;;;;;;;10406527;28;20033;-78
2023/04/29 14:23:03;;;;;;;17.73;10.60;;;;;;;;;;10416917;28;20053;-81
2023/04/29 14:28:05;;;;;;;10.27;5.90;;;;;;;;;;10406282;28;20463;-80
2023/04/29 14:33:06;;;;;;;11.60;6.95;;;;;;;;;;10429868;28;20025;-81
2023/04/29 14:38:07;;;;;;;10.70;7.10;;;;;;;;;;10425634;28;20476;-79
2023/04/29 14:43:08;;;;;;;11.25;7.18;;;;;;;;;;10418868;28;20026;-80
2023/04/29 14:48:09;;;;;;;25.52;15.05;;;;;;;;;;10405656;28;20409;-80
2023/04/29 14:53:11;;;;;;;18.90;9.98;;;;;;;;;;10406230;28;20057;-80
2023/04/29 14:58:15;;;;;;;41.60;20.42;;;;;;;;;;10406604;28;20032;-80
2023/04/29 15:03:19;;;;;;;14.90;8.63;;;;;;;;;;10405003;28;20052;-80
2023/04/29 15:08:22;;;;;;;28.95;15.30;;;;;;;;;;10404497;28;20125;-80
2023/04/29 15:13:26;;;;;;;18.10;10.10;;;;;;;;;;10408544;28;20091;-81
2023/04/29 15:18:27;;;;;;;16.52;9.23;;;;;;;;;;10399080;28;20560;-79
2023/04/29 15:23:30;;;;;;;16.83;9.98;;;;;;;;;;10404702;28;20049;-79
2023/04/29 15:28:31;;;;;;;14.88;9.57;;;;;;;;;;10401794;28;20118;-79
2023/04/29 15:33:41;;;;;;;12.30;8.13;;;;;;;;;;10407274;28;20045;-79
2023/04/29 15:38:42;;;;;;;13.40;9.65;;;;;;;;;;10415817;28;20098;-79
2023/04/29 15:43:52;;;;;;;17.30;10.70;;;;;;;;;;10411823;28;20025;-81
2023/04/29 15:48:56;;;;;;;18.35;10.13;;;;;;;;;;10414854;28;20457;-79
2023/04/29 15:53:59;;;;;;;24.92;13.15;;;;;;;;;;10419465;28;20036;-79
2023/04/29 15:59:00;;;;;;;22.02;13.40;;;;;;;;;;10426572;28;20033;-79
2023/04/29 16:04:07;;;;;;;19.08;11.63;;;;;;;;;;10433562;28;20659;-79
2023/04/29 16:09:10;;;;;;;23.30;13.00;;;;;;;;;;10436303;28;20037;-80
2023/04/29 16:14:11;;;;;;;19.25;11.73;;;;;;;;;;10425164;28;20060;-79
2023/04/29 16:19:15;;;;;;;27.48;15.18;;;;;;;;;;10443261;28;20033;-81
2023/04/29 16:24:21;;;;;;;25.30;14.00;;;;;;;;;;10424110;28;20053;-79
2023/04/29 16:29:26;;;;;;;;;;;;;;;;;;10425807;28;20064;-80
2023/04/29 16:34:29;;;;;;;34.00;21.10;;;;;;;;;;10414362;28;19925;-79
2023/04/29 16:39:32;;;;;;;47.95;24.70;;;;;;;;;;10423814;28;20031;-83
2023/04/29 16:44:33;;;;;;;48.85;23.48;;;;;;;;;;10412294;28;20025;-80
2023/04/29 16:49:39;;;;;;;29.90;18.77;;;;;;;;;;10417635;28;20029;-80
2023/04/29 16:54:40;;;;;;;28.52;18.60;;;;;;;;;;10401169;28;20079;-80
2023/04/29 16:59:41;;;;;;;39.22;24.17;;;;;;;;;;10400983;28;20034;-78
2023/04/29 17:04:42;;;;;;;93.85;54.50;;;;;;;;;;10402387;28;20056;-79
2023/04/29 17:09:49;;;;;;;62.20;39.75;;;;;;;;;;10401393;28;20030;-79
2023/04/29 17:14:50;;;;;;;109.53;62.85;;;;;;;;;;10406657;28;20850;-79
2023/04/29 17:19:51;;;;;;;107.40;63.63;;;;;;;;;;10404766;28;20038;-78
2023/04/29 17:24:52;;;;;;;99.55;54.20;;;;;;;;;;10414804;28;20104;-80
2023/04/29 17:29:53;;;;;;;48.83;27.25;;;;;;;;;;10408090;28;20032;-79
2023/04/29 17:35:00;;;;;;;52.40;27.77;;;;;;;;;;10408135;28;20033;-79
2023/04/29 17:40:04;;;;;;;34.65;19.35;;;;;;;;;;10421914;28;20072;-79
2023/04/29 17:45:07;;;;;;;32.10;18.95;;;;;;;;;;10436056;28;20567;-79
2023/04/29 17:50:11;;;;;;;99.55;49.42;;;;;;;;;;10433416;28;20033;-79
2023/04/29 17:55:16;;;;;;;41.83;24.38;;;;;;;;;;10425603;28;20034;-81
2023/04/29 18:00:17;;;;;;;51.65;29.13;;;;;;;;;;10431770;28;20032;-79
2023/04/29 18:05:19;;;;;;;41.25;25.77;;;;;;;;;;10413363;28;20401;-79
2023/04/29 18:10:20;;;;;;;33.65;20.98;;;;;;;;;;10426663;28;20036;-78
2023/04/29 18:15:21;;;;;;;36.15;23.58;;;;;;;;;;10422639;28;20036;-78
2023/04/29 18:20:23;;;;;;;35.30;23.25;;;;;;;;;;10412566;28;20040;-79
2023/04/29 18:25:24;;;;;;;85.45;47.10;;;;;;;;;;10407491;28;20057;-80
2023/04/29 18:30:25;;;;;;;59.08;41.25;;;;;;;;;;10407007;28;20091;-78
2023/04/29 18:35:26;;;;;;;58.80;37.50;;;;;;;;;;10401902;28;20306;-78
2023/04/29 18:40:27;;;;;;;67.05;44.55;;;;;;;;;;10404291;28;20076;-78
2023/04/29 18:45:28;;;;;;;74.97;53.38;;;;;;;;;;10404551;28;20033;-78
2023/04/29 18:50:29;;;;;;;44.80;31.50;;;;;;;;;;10404489;28;20029;-78
2023/04/29 18:55:30;;;;;;;46.55;29.60;;;;;;;;;;10405193;28;20037;-79
2023/04/29 19:00:38;;;;;;;43.97;27.27;;;;;;;;;;10405494;28;20044;-80
2023/04/29 19:05:39;;;;;;;44.20;27.45;;;;;;;;;;10405673;28;20033;-79
2023/04/29 19:10:40;;;;;;;59.80;33.67;;;;;;;;;;10404162;28;20037;-80
2023/04/29 19:15:41;;;;;;;55.10;32.72;;;;;;;;;;10397750;23;20057;-78
2023/04/29 19:20:47;;;;;;;47.42;28.83;;;;;;;;;;10345100;28;20695;-79
2023/04/29 19:25:48;;;;;;;50.28;30.15;;;;;;;;;;10378565;28;20042;-80
2023/04/29 19:30:49;;;;;;;43.55;27.25;;;;;;;;;;10364376;28;20394;-79
2023/04/29 19:35:50;;;;;;;48.72;31.23;;;;;;;;;;10358353;28;20036;-79
2023/04/29 19:40:53;;;;;;;47.03;31.77;;;;;;;;;;10382261;28;20481;-79
2023/04/29 19:45:56;;;;;;;56.75;38.20;;;;;;;;;;10348382;28;20030;-80
2023/04/29 19:51:01;;;;;;;47.47;28.73;;;;;;;;;;10380654;28;20046;-80
2023/04/29 19:56:05;;;;;;;45.63;30.23;;;;;;;;;;10376440;28;20041;-80
2023/04/29 20:01:06;;;;;;;40.17;24.58;;;;;;;;;;10364242;28;20041;-79
2023/04/29 20:06:09;;;;;;;19.40;12.60;;;;;;;;;;10373450;28;20037;-79
2023/04/29 20:11:10;;;;;;;16.60;10.65;;;;;;;;;;10377547;28;20544;-80
2023/04/29 20:16:15;;;;;;;14.55;9.80;;;;;;;;;;10381021;28;20136;-78
2023/04/29 20:21:16;;;;;;;13.07;7.93;;;;;;;;;;10375225;28;20387;-78
2023/04/29 20:26:17;;;;;;;21.05;11.57;;;;;;;;;;10374273;28;20050;-78
2023/04/29 20:31:18;;;;;;;32.50;18.88;;;;;;;;;;10366432;28;20045;-80
2023/04/29 20:36:20;;;;;;;27.55;16.40;;;;;;;;;;10369420;28;20042;-79
2023/04/29 20:41:21;;;;;;;23.77;12.55;;;;;;;;;;10366845;28;20026;-79
2023/04/29 20:46:22;;;;;;;20.67;10.40;;;;;;;;;;10353479;28;20497;-79
2023/04/29 20:51:23;;;;;;;19.13;9.80;;;;;;;;;;10370143;28;20030;-79
2023/04/29 20:56:28;;;;;;;15.15;8.63;;;;;;;;;;10361005;28;20022;-79
2023/04/29 21:01:31;;;;;;;19.55;8.93;;;;;;;;;;10360586;28;20022;-79
2023/04/29 21:06:32;;;;;;;21.42;11.02;;;;;;;;;;10373686;28;20045;-79
2023/04/29 21:11:33;;;;;;;23.92;12.23;;;;;;;;;;10369830;28;20041;-79
2023/04/29 21:16:35;;;;;;;33.72;15.55;;;;;;;;;;10353208;28;20820;-78
2023/04/29 21:21:35;;;;;;;30.58;14.75;;;;;;;;;;10369922;28;20125;-79
2023/04/29 21:26:38;;;;;;;33.58;16.40;;;;;;;;;;10361962;28;20026;-81
2023/04/29 21:31:39;;;;;;;35.80;16.45;;;;;;;;;;10360042;28;20061;-80
2023/04/29 21:36:39;;;;;;;35.72;16.25;;;;;;;;;;10362209;28;20037;-80
2023/04/29 21:41:42;;;;;;;31.38;15.20;;;;;;;;;;10361623;28;20034;-80
2023/04/29 21:46:43;;;;;;;31.88;15.88;;;;;;;;;;10360595;28;20042;-79
2023/04/29 21:51:44;;;;;;;31.00;15.77;;;;;;;;;;10360103;28;20469;-80
2023/04/29 21:56:49;;;;;;;34.33;16.17;;;;;;;;;;10368124;28;20036;-81
2023/04/29 22:01:58;;;;;;;39.70;19.05;;;;;;;;;;10369346;28;20030;-81
2023/04/29 22:06:59;;;;;;;39.78;18.40;;;;;;;;;;10356026;28;20085;-80
2023/04/29 22:12:04;;;;;;;41.35;17.63;;;;;;;;;;10367443;28;20016;-81
2023/04/29 22:17:05;;;;;;;39.07;19.43;;;;;;;;;;10377285;28;20571;-80
2023/04/29 22:22:09;;;;;;;39.08;19.10;;;;;;;;;;10367162;28;20018;-81
2023/04/29 22:27:10;;;;;;;38.22;19.23;;;;;;;;;;10374709;28;20045;-80
2023/04/29 22:32:11;;;;;;;41.78;18.65;;;;;;;;;;10369861;28;20042;-80
2023/04/29 22:37:12;;;;;;;44.67;19.52;;;;;;;;;;10372578;28;20041;-80
2023/04/29 22:42:16;;;;;;;45.67;19.90;;;;;;;;;;10375233;28;20067;-81
2023/04/29 22:47:17;;;;;;;44.42;21.17;;;;;;;;;;10369088;28;20148;-80
2023/04/29 22:52:22;;;;;;;44.05;20.45;;;;;;;;;;10374503;28;20082;-81
2023/04/29 22:57:23;;;;;;;52.60;25.90;;;;;;;;;;10374684;28;20117;-80
2023/04/29 23:02:29;;;;;;;52.80;23.80;;;;;;;;;;10364643;28;20112;-80
2023/04/29 23:07:31;;;;;;;;;;;;;;;;;;10365542;28;20521;-79
2023/04/29 23:12:32;;;;;;;66.00;28.45;;;;;;;;;;10364781;28;19921;-80
2023/04/29 23:17:38;;;;;;;77.70;28.50;;;;;;;;;;10359160;28;20037;-81
2023/04/29 23:22:41;;;;;;;81.93;33.25;;;;;;;;;;10365748;28;20026;-79
2023/04/29 23:27:42;;;;;;;76.18;30.73;;;;;;;;;;10364681;28;20046;-79
2023/04/29 23:32:43;;;;;;;67.57;29.17;;;;;;;;;;10363115;28;20382;-81
2023/04/29 23:37:47;;;;;;;65.85;25.88;;;;;;;;;;10346711;28;20030;-79
2023/04/29 23:42:47;;;;;;;75.88;35.40;;;;;;;;;;10364396;28;20053;-80
2023/04/29 23:47:48;;;;;;;61.25;25.08;;;;;;;;;;10368261;28;20121;-80
2023/04/29 23:52:50;;;;;;;48.83;20.15;;;;;;;;;;10363651;28;20406;-80
2023/04/29 23:57:50;;;;;;;40.65;17.80;;;;;;;;;;10365428;28;20505;-80
